createdAt,value
2022-07-29T00:00:27.133Z,1000.23
2022-07-29T00:01:27.121Z,1000.24
2022-07-29T00:02:27.192Z,1000.22
2022-07-29T00:03:27.081Z,1000.26
2022-07-29T00:04:27.222Z,1000.29
2022-07-29T00:05:27.065Z,1000.25
2022-07-29T00:06:27.064Z,1000.22
2022-07-29T00:07:27.022Z,1000.24
2022-07-29T00:08:27.023Z,1000.25
2022-07-29T00:09:27.002Z,1000.26
2022-07-29T00:10:26.984Z,1000.28
2022-07-29T00:11:27.003Z,1000.31
2022-07-29T00:12:27.123Z,1000.25
2022-07-29T00:13:32.500Z,1000.19
2022-07-29T00:14:27.942Z,1000.17
2022-07-29T00:15:26.914Z,1000.15
2022-07-29T00:16:26.951Z,1000.15
2022-07-29T00:17:26.915Z,1000.08
2022-07-29T00:18:26.886Z,1000.08
2022-07-29T00:19:26.864Z,1000.01
2022-07-29T00:20:26.865Z,1000.03
2022-07-29T00:21:26.866Z,1000.08
2022-07-29T00:22:26.866Z,1000.09
2022-07-29T00:23:26.816Z,1000.07
2022-07-29T00:24:26.805Z,1000.07
2022-07-29T00:25:26.785Z,1000.03
2022-07-29T00:26:26.766Z,1000.06
2022-07-29T00:27:26.776Z,1000.00
2022-07-29T00:28:26.757Z,1000.04
2022-07-29T00:29:34.851Z,1000.03
2022-07-29T00:30:27.724Z,1000.04
2022-07-29T00:31:26.761Z,1000.11
2022-07-29T00:32:26.715Z,1000.13
2022-07-29T00:33:26.675Z,1000.02
2022-07-29T00:34:26.669Z,1000.02
2022-07-29T00:35:26.647Z,999.87
2022-07-29T00:36:26.656Z,999.90
2022-07-29T00:37:26.633Z,999.95
2022-07-29T00:38:26.614Z,999.96
2022-07-29T00:39:26.599Z,999.99
2022-07-29T00:40:26.587Z,1000.10
2022-07-29T00:41:26.606Z,1000.10
2022-07-29T00:42:26.571Z,1000.18
2022-07-29T00:43:26.556Z,1000.07
2022-07-29T00:44:26.539Z,1000.06
2022-07-29T00:45:26.527Z,1000.02
2022-07-29T00:46:26.604Z,1000.03
2022-07-29T00:47:26.491Z,1000.01
2022-07-29T00:48:26.492Z,999.99
2022-07-29T00:49:26.503Z,999.94
2022-07-29T00:50:26.458Z,999.95
2022-07-29T00:51:26.463Z,999.95
2022-07-29T00:52:26.431Z,999.94
2022-07-29T00:53:26.422Z,999.95
2022-07-29T00:54:26.400Z,1000.02
2022-07-29T00:55:26.388Z,1000.06
2022-07-29T00:56:26.389Z,1000.02
2022-07-29T00:57:26.358Z,1000.06
2022-07-29T00:58:26.338Z,1000.03
2022-07-29T00:59:26.326Z,1000.00
2022-07-29T01:00:27.389Z,999.97
2022-07-29T01:01:26.414Z,999.94
2022-07-29T01:02:26.397Z,999.91
2022-07-29T01:03:26.278Z,999.91
2022-07-29T01:04:26.271Z,999.94
2022-07-29T01:05:48.157Z,999.91
2022-07-29T01:06:27.261Z,999.87
2022-07-29T01:07:26.220Z,999.87
2022-07-29T01:08:26.233Z,999.78
2022-07-29T01:09:46.416Z,999.77
2022-07-29T01:10:27.193Z,999.74
2022-07-29T01:11:26.222Z,999.67
2022-07-29T01:12:26.161Z,999.69
2022-07-29T01:13:26.131Z,999.63
2022-07-29T01:14:26.132Z,999.62
2022-07-29T01:15:26.122Z,999.57
2022-07-29T01:16:26.218Z,999.59
2022-07-29T01:17:26.111Z,999.58
2022-07-29T01:18:26.085Z,999.58
2022-07-29T01:19:26.082Z,999.54
2022-07-29T01:20:31.626Z,999.54
2022-07-29T01:21:27.064Z,999.51
2022-07-29T01:22:26.022Z,999.51
2022-07-29T01:23:26.044Z,999.53
2022-07-29T01:24:26.013Z,999.47
2022-07-29T01:25:25.991Z,999.49
2022-07-29T01:26:26.004Z,999.49
2022-07-29T01:27:25.962Z,999.47
2022-07-29T01:28:25.952Z,999.46
2022-07-29T01:29:25.933Z,999.45
2022-07-29T01:30:25.935Z,999.45
2022-07-29T01:31:26.494Z,999.46
2022-07-29T01:32:29.003Z,999.39
2022-07-29T01:33:25.875Z,999.37
2022-07-29T01:34:25.874Z,999.41
2022-07-29T01:35:25.873Z,999.44
2022-07-29T01:36:25.834Z,999.45
2022-07-29T01:37:25.852Z,999.48
2022-07-29T01:38:25.834Z,999.52
2022-07-29T01:39:25.794Z,999.53
2022-07-29T01:40:25.802Z,999.48
2022-07-29T01:41:25.784Z,999.53
2022-07-29T01:42:25.807Z,999.47
2022-07-29T01:43:25.764Z,999.44
2022-07-29T01:44:25.745Z,999.40
2022-07-29T01:45:25.726Z,999.33
2022-07-29T01:46:25.844Z,999.34
2022-07-29T01:47:25.702Z,999.29
2022-07-29T01:48:25.687Z,999.30
2022-07-29T01:49:25.733Z,999.32
2022-07-29T01:50:25.656Z,999.38
2022-07-29T01:51:25.658Z,999.38
2022-07-29T01:52:25.630Z,999.37
2022-07-29T01:53:25.618Z,999.36
2022-07-29T01:54:25.598Z,999.32
2022-07-29T01:55:25.577Z,999.30
2022-07-29T01:56:25.577Z,999.26
2022-07-29T01:57:25.578Z,999.26
2022-07-29T01:58:25.569Z,999.27
2022-07-29T01:59:25.538Z,999.24
2022-07-29T02:00:25.543Z,999.24
2022-07-29T02:01:25.550Z,999.24
2022-07-29T02:02:25.508Z,999.19
2022-07-29T02:03:25.484Z,999.24
2022-07-29T02:04:29.758Z,999.20
2022-07-29T02:05:25.528Z,999.22
2022-07-29T02:06:25.440Z,999.25
2022-07-29T02:07:25.439Z,999.18
2022-07-29T02:08:25.410Z,999.17
2022-07-29T02:09:25.407Z,999.14
2022-07-29T02:10:25.775Z,999.16
2022-07-29T02:11:25.381Z,999.11
2022-07-29T02:12:25.381Z,999.10
2022-07-29T02:13:25.339Z,999.08
2022-07-29T02:14:25.331Z,999.09
2022-07-29T02:15:25.336Z,999.04
2022-07-29T02:16:25.388Z,999.02
2022-07-29T02:17:25.310Z,999.01
2022-07-29T02:18:25.270Z,998.97
2022-07-29T02:19:25.271Z,998.95
2022-07-29T02:20:25.241Z,998.95
2022-07-29T02:21:25.230Z,998.92
2022-07-29T02:22:25.230Z,998.90
2022-07-29T02:23:25.201Z,998.89
2022-07-29T02:24:25.190Z,998.87
2022-07-29T02:25:25.180Z,998.87
2022-07-29T02:26:26.162Z,998.87
2022-07-29T02:27:25.171Z,998.83
2022-07-29T02:28:25.131Z,998.86
2022-07-29T02:29:25.121Z,998.88
2022-07-29T02:30:25.111Z,998.86
2022-07-29T02:31:25.164Z,998.85
2022-07-29T02:32:25.101Z,998.88
2022-07-29T02:33:25.076Z,998.89
2022-07-29T02:34:25.062Z,998.90
2022-07-29T02:35:25.041Z,998.91
2022-07-29T02:36:25.031Z,998.95
2022-07-29T02:37:25.078Z,998.95
2022-07-29T02:38:25.005Z,998.99
2022-07-29T02:39:24.992Z,999.02
2022-07-29T02:40:24.973Z,999.01
2022-07-29T02:41:24.962Z,998.97
2022-07-29T02:42:24.962Z,998.97
2022-07-29T02:43:24.944Z,998.93
2022-07-29T02:44:24.931Z,998.96
2022-07-29T02:45:24.912Z,998.97
2022-07-29T02:46:28.422Z,999.01
2022-07-29T02:47:24.905Z,999.00
2022-07-29T02:48:24.863Z,998.95
2022-07-29T02:49:24.947Z,999.01
2022-07-29T02:50:24.835Z,998.96
2022-07-29T02:51:42.613Z,998.99
2022-07-29T02:52:25.823Z,998.98
2022-07-29T02:53:24.808Z,999.05
2022-07-29T02:54:24.774Z,999.02
2022-07-29T02:55:24.772Z,999.07
2022-07-29T02:56:24.764Z,999.05
2022-07-29T02:57:24.764Z,999.06
2022-07-29T02:58:24.732Z,999.09
2022-07-29T02:59:24.724Z,999.08
2022-07-29T03:00:24.734Z,999.09
2022-07-29T03:01:24.716Z,999.09
2022-07-29T03:02:24.693Z,999.12
2022-07-29T03:03:24.673Z,999.14
2022-07-29T03:04:24.712Z,999.13
2022-07-29T03:05:24.657Z,999.18
2022-07-29T03:06:28.251Z,999.17
2022-07-29T03:07:25.640Z,999.18
2022-07-29T03:08:24.595Z,999.16
2022-07-29T03:09:24.585Z,999.14
2022-07-29T03:10:24.581Z,999.17
2022-07-29T03:11:41.442Z,999.17
2022-07-29T03:12:25.555Z,999.14
2022-07-29T03:13:24.602Z,999.15
2022-07-29T03:14:24.516Z,999.18
2022-07-29T03:15:24.752Z,999.12
2022-07-29T03:16:24.504Z,999.13
2022-07-29T03:17:24.497Z,999.15
2022-07-29T03:18:24.462Z,999.18
2022-07-29T03:19:24.456Z,999.18
2022-07-29T03:20:24.437Z,999.19
2022-07-29T03:21:24.423Z,999.21
2022-07-29T03:22:24.416Z,999.23
2022-07-29T03:23:24.390Z,999.22
2022-07-29T03:24:24.393Z,999.24
2022-07-29T03:25:24.374Z,999.24
2022-07-29T03:26:24.347Z,999.28
2022-07-29T03:27:24.365Z,999.29
2022-07-29T03:28:24.327Z,999.22
2022-07-29T03:29:24.327Z,999.21
2022-07-29T03:30:24.338Z,999.17
2022-07-29T03:31:24.352Z,999.16
2022-07-29T03:32:25.337Z,999.18
2022-07-29T03:33:24.259Z,999.13
2022-07-29T03:34:24.255Z,999.11
2022-07-29T03:35:24.240Z,999.10
2022-07-29T03:36:24.218Z,999.11
2022-07-29T03:37:24.228Z,999.10
2022-07-29T03:38:24.198Z,999.05
2022-07-29T03:39:24.180Z,999.04
2022-07-29T03:40:24.178Z,999.06
2022-07-29T03:41:24.166Z,999.09
2022-07-29T03:42:24.179Z,999.04
2022-07-29T03:43:24.131Z,999.09
2022-07-29T03:44:24.118Z,999.06
2022-07-29T03:45:24.112Z,999.04
2022-07-29T03:46:24.175Z,999.01
2022-07-29T03:47:43.434Z,999.03
2022-07-29T03:48:25.061Z,999.03
2022-07-29T03:49:24.090Z,999.01
2022-07-29T03:50:24.042Z,999.02
2022-07-29T03:51:33.344Z,998.96
2022-07-29T03:52:25.047Z,999.00
2022-07-29T03:53:24.010Z,998.97
2022-07-29T03:54:24.000Z,999.01
2022-07-29T03:55:23.978Z,999.00
2022-07-29T03:56:23.958Z,999.01
2022-07-29T03:57:23.950Z,998.98
2022-07-29T03:58:23.988Z,999.02
2022-07-29T03:59:23.933Z,999.00
2022-07-29T04:00:23.925Z,998.98
2022-07-29T04:01:23.981Z,999.00
2022-07-29T04:02:28.701Z,999.01
2022-07-29T04:03:24.988Z,999.00
2022-07-29T04:04:23.863Z,999.03
2022-07-29T04:05:23.841Z,999.01
2022-07-29T04:06:23.852Z,999.02
2022-07-29T04:07:23.874Z,999.01
2022-07-29T04:08:23.820Z,999.02
2022-07-29T04:09:23.801Z,999.01
2022-07-29T04:10:26.895Z,999.09
2022-07-29T04:11:24.782Z,999.09
2022-07-29T04:12:23.751Z,999.10
2022-07-29T04:13:23.761Z,999.08
2022-07-29T04:14:23.733Z,999.11
2022-07-29T04:15:23.723Z,999.10
2022-07-29T04:16:23.757Z,999.07
2022-07-29T04:17:23.693Z,999.16
2022-07-29T04:18:23.702Z,999.14
2022-07-29T04:19:23.690Z,999.10
2022-07-29T04:20:23.661Z,999.16
2022-07-29T04:21:23.663Z,999.19
2022-07-29T04:22:23.631Z,999.17
2022-07-29T04:23:23.632Z,999.16
2022-07-29T04:24:23.593Z,999.17
2022-07-29T04:25:23.583Z,999.17
2022-07-29T04:26:23.573Z,999.17
2022-07-29T04:27:23.575Z,999.20
2022-07-29T04:28:23.564Z,999.19
2022-07-29T04:29:23.535Z,999.17
2022-07-29T04:30:23.543Z,999.17
2022-07-29T04:31:25.891Z,999.15
2022-07-29T04:32:23.483Z,999.20
2022-07-29T04:33:25.042Z,999.17
2022-07-29T04:34:23.465Z,999.15
2022-07-29T04:35:23.466Z,999.17
2022-07-29T04:36:29.502Z,999.18
2022-07-29T04:37:24.646Z,999.24
2022-07-29T04:38:23.454Z,999.17
2022-07-29T04:39:23.452Z,999.16
2022-07-29T04:40:23.384Z,999.21
2022-07-29T04:41:23.384Z,999.22
2022-07-29T04:42:27.407Z,999.26
2022-07-29T04:43:23.523Z,999.28
2022-07-29T04:44:28.471Z,999.25
2022-07-29T04:45:24.333Z,999.29
2022-07-29T04:46:23.353Z,999.28
2022-07-29T04:47:23.294Z,999.29
2022-07-29T04:48:28.508Z,999.31
2022-07-29T04:49:24.356Z,999.29
2022-07-29T04:50:23.245Z,999.30
2022-07-29T04:51:23.244Z,999.29
2022-07-29T04:52:23.253Z,999.33
2022-07-29T04:53:23.222Z,999.32
2022-07-29T04:54:23.223Z,999.33
2022-07-29T04:55:23.186Z,999.33
2022-07-29T04:56:23.178Z,999.36
2022-07-29T04:57:23.169Z,999.36
2022-07-29T04:58:23.157Z,999.37
2022-07-29T04:59:23.187Z,999.36
2022-07-29T05:00:23.127Z,999.39
2022-07-29T05:01:24.241Z,999.40
2022-07-29T05:02:23.134Z,999.40
2022-07-29T05:03:23.076Z,999.43
2022-07-29T05:04:23.105Z,999.39
2022-07-29T05:05:23.096Z,999.38
2022-07-29T05:06:23.046Z,999.38
2022-07-29T05:07:23.035Z,999.39
2022-07-29T05:08:23.008Z,999.39
2022-07-29T05:09:24.494Z,999.40
2022-07-29T05:10:23.502Z,999.41
2022-07-29T05:11:27.233Z,999.45
2022-07-29T05:12:23.982Z,999.44
2022-07-29T05:13:22.959Z,999.43
2022-07-29T05:14:22.947Z,999.41
2022-07-29T05:15:23.045Z,999.40
2022-07-29T05:16:22.950Z,999.37
2022-07-29T05:17:22.899Z,999.42
2022-07-29T05:18:25.917Z,999.43
2022-07-29T05:19:22.920Z,999.44
2022-07-29T05:20:22.858Z,999.47
2022-07-29T05:21:22.849Z,999.49
2022-07-29T05:22:22.829Z,999.47
2022-07-29T05:23:22.820Z,999.49
2022-07-29T05:24:22.830Z,999.53
2022-07-29T05:25:22.791Z,999.52
2022-07-29T05:26:22.799Z,999.52
2022-07-29T05:27:22.779Z,999.48
2022-07-29T05:28:22.809Z,999.46
2022-07-29T05:29:42.703Z,999.52
2022-07-29T05:30:23.818Z,999.47
2022-07-29T05:31:22.837Z,999.55
2022-07-29T05:32:22.693Z,999.51
2022-07-29T05:33:35.248Z,999.49
2022-07-29T05:34:23.693Z,999.51
2022-07-29T05:35:22.650Z,999.56
2022-07-29T05:36:22.662Z,999.54
2022-07-29T05:37:22.629Z,999.57
2022-07-29T05:38:22.631Z,999.55
2022-07-29T05:39:22.622Z,999.56
2022-07-29T05:40:23.578Z,999.55
2022-07-29T05:41:22.593Z,999.56
2022-07-29T05:42:23.611Z,999.58
2022-07-29T05:43:22.695Z,999.51
2022-07-29T05:44:25.368Z,999.55
2022-07-29T05:45:22.522Z,999.48
2022-07-29T05:46:22.536Z,999.53
2022-07-29T05:47:22.491Z,999.50
2022-07-29T05:48:22.485Z,999.49
2022-07-29T05:49:24.229Z,999.56
2022-07-29T05:50:23.813Z,999.51
2022-07-29T05:51:22.451Z,999.58
2022-07-29T05:52:22.433Z,999.58
2022-07-29T05:53:22.633Z,999.58
2022-07-29T05:54:22.403Z,999.58
2022-07-29T05:55:22.392Z,999.56
2022-07-29T05:56:22.371Z,999.55
2022-07-29T05:57:22.744Z,999.57
2022-07-29T05:58:22.342Z,999.59
2022-07-29T05:59:24.106Z,999.59
2022-07-29T06:00:22.324Z,999.61
2022-07-29T06:01:22.352Z,999.58
2022-07-29T06:02:22.290Z,999.61
2022-07-29T06:03:22.374Z,999.58
2022-07-29T06:04:22.337Z,999.59
2022-07-29T06:05:22.263Z,999.62
2022-07-29T06:06:22.244Z,999.62
2022-07-29T06:07:22.232Z,999.67
2022-07-29T06:08:22.204Z,999.65
2022-07-29T06:09:22.223Z,999.68
2022-07-29T06:10:26.176Z,999.67
2022-07-29T06:11:23.175Z,999.70
2022-07-29T06:12:22.159Z,999.70
2022-07-29T06:13:22.152Z,999.67
2022-07-29T06:14:22.145Z,999.70
2022-07-29T06:15:22.114Z,999.69
2022-07-29T06:16:28.910Z,999.64
2022-07-29T06:17:23.085Z,999.64
2022-07-29T06:18:22.083Z,999.64
2022-07-29T06:19:22.085Z,999.60
2022-07-29T06:20:26.867Z,999.60
2022-07-29T06:21:23.048Z,999.56
2022-07-29T06:22:22.016Z,999.57
2022-07-29T06:23:22.094Z,999.59
2022-07-29T06:24:22.068Z,999.58
2022-07-29T06:25:22.001Z,999.60
2022-07-29T06:26:30.741Z,999.60
2022-07-29T06:27:22.957Z,999.60
2022-07-29T06:28:21.945Z,999.64
2022-07-29T06:29:21.947Z,999.66
2022-07-29T06:30:22.167Z,999.70
2022-07-29T06:31:21.953Z,999.70
2022-07-29T06:32:22.901Z,999.71
2022-07-29T06:33:22.883Z,999.74
2022-07-29T06:34:21.877Z,999.72
2022-07-29T06:35:38.611Z,999.73
2022-07-29T06:36:22.927Z,999.73
2022-07-29T06:37:21.826Z,999.77
2022-07-29T06:38:33.833Z,999.77
2022-07-29T06:39:22.861Z,999.77
2022-07-29T06:40:21.789Z,999.77
2022-07-29T06:41:21.765Z,999.75
2022-07-29T06:42:21.758Z,999.79
2022-07-29T06:43:21.747Z,999.77
2022-07-29T06:44:21.740Z,999.79
2022-07-29T06:45:21.709Z,999.76
2022-07-29T06:46:28.890Z,999.80
2022-07-29T06:47:21.673Z,999.79
2022-07-29T06:48:21.683Z,999.81
2022-07-29T06:49:21.714Z,999.84
2022-07-29T06:50:21.652Z,999.85
2022-07-29T06:51:22.575Z,999.83
2022-07-29T06:52:21.620Z,999.82
2022-07-29T06:53:21.614Z,999.86
2022-07-29T06:54:21.622Z,999.86
2022-07-29T06:55:25.352Z,999.87
2022-07-29T06:56:21.574Z,999.87
2022-07-29T06:57:21.544Z,999.88
2022-07-29T06:58:21.545Z,999.92
2022-07-29T06:59:28.342Z,999.88
2022-07-29T07:00:22.523Z,999.85
2022-07-29T07:01:21.579Z,999.91
2022-07-29T07:02:21.555Z,999.89
2022-07-29T07:03:21.465Z,999.92
2022-07-29T07:04:21.680Z,999.89
2022-07-29T07:05:21.442Z,999.91
2022-07-29T07:06:21.434Z,999.88
2022-07-29T07:07:21.404Z,999.88
2022-07-29T07:08:21.415Z,999.87
2022-07-29T07:09:21.404Z,999.88
2022-07-29T07:10:21.376Z,999.90
2022-07-29T07:11:21.362Z,999.92
2022-07-29T07:12:21.364Z,999.94
2022-07-29T07:13:21.335Z,999.94
2022-07-29T07:14:21.656Z,999.96
2022-07-29T07:15:21.305Z,999.96
2022-07-29T07:16:21.351Z,999.96
2022-07-29T07:17:21.293Z,999.94
2022-07-29T07:18:21.273Z,999.97
2022-07-29T07:19:21.304Z,1000.00
2022-07-29T07:20:21.266Z,1000.01
2022-07-29T07:21:21.256Z,1000.01
2022-07-29T07:22:21.224Z,1000.00
2022-07-29T07:23:21.196Z,1000.01
2022-07-29T07:24:21.217Z,1000.02
2022-07-29T07:25:21.204Z,1000.00
2022-07-29T07:26:21.168Z,1000.01
2022-07-29T07:27:21.147Z,999.99
2022-07-29T07:28:24.518Z,999.97
2022-07-29T07:29:21.116Z,999.95
2022-07-29T07:30:21.157Z,999.97
2022-07-29T07:31:21.210Z,999.96
2022-07-29T07:32:21.122Z,999.96
2022-07-29T07:33:21.125Z,999.96
2022-07-29T07:34:28.278Z,999.95
2022-07-29T07:35:22.068Z,999.92
2022-07-29T07:36:21.037Z,999.92
2022-07-29T07:37:21.021Z,999.88
2022-07-29T07:38:21.080Z,999.90
2022-07-29T07:39:20.988Z,999.87
2022-07-29T07:40:20.996Z,999.87
2022-07-29T07:41:20.969Z,999.85
2022-07-29T07:42:20.949Z,999.81
2022-07-29T07:43:20.946Z,999.79
2022-07-29T07:44:21.249Z,999.78
2022-07-29T07:45:20.929Z,999.78
2022-07-29T07:46:20.995Z,999.73
2022-07-29T07:47:20.889Z,999.74
2022-07-29T07:48:20.920Z,999.75
2022-07-29T07:49:20.924Z,999.75
2022-07-29T07:50:20.869Z,999.72
2022-07-29T07:51:20.821Z,999.75
2022-07-29T07:52:20.850Z,999.75
2022-07-29T07:53:20.810Z,999.78
2022-07-29T07:54:21.113Z,999.77
2022-07-29T07:55:20.800Z,999.81
2022-07-29T07:56:20.781Z,999.83
2022-07-29T07:57:20.752Z,999.79
2022-07-29T07:58:20.741Z,999.82
2022-07-29T07:59:20.729Z,999.81
2022-07-29T08:00:23.078Z,999.87
2022-07-29T08:01:20.744Z,999.86
2022-07-29T08:02:20.857Z,999.88
2022-07-29T08:03:20.670Z,999.84
2022-07-29T08:04:26.566Z,999.81
2022-07-29T08:05:21.683Z,999.80
2022-07-29T08:06:20.654Z,999.82
2022-07-29T08:07:20.613Z,999.79
2022-07-29T08:08:20.614Z,999.80
2022-07-29T08:09:29.298Z,999.82
2022-07-29T08:10:21.602Z,999.79
2022-07-29T08:11:20.570Z,999.84
2022-07-29T08:12:20.562Z,999.83
2022-07-29T08:13:20.535Z,999.83
2022-07-29T08:14:20.531Z,999.79
2022-07-29T08:15:20.531Z,999.80
2022-07-29T08:16:20.619Z,999.79
2022-07-29T08:17:20.491Z,999.80
2022-07-29T08:18:20.485Z,999.77
2022-07-29T08:19:20.457Z,999.80
2022-07-29T08:20:20.576Z,999.82
2022-07-29T08:21:20.508Z,999.80
2022-07-29T08:22:20.411Z,999.85
2022-07-29T08:23:20.405Z,999.88
2022-07-29T08:24:20.394Z,999.87
2022-07-29T08:25:20.445Z,999.88
2022-07-29T08:26:20.367Z,999.85
2022-07-29T08:27:41.907Z,999.86
2022-07-29T08:28:21.343Z,999.85
2022-07-29T08:29:20.334Z,999.84
2022-07-29T08:30:20.374Z,999.82
2022-07-29T08:31:20.358Z,999.84
2022-07-29T08:32:43.478Z,999.85
2022-07-29T08:33:21.285Z,999.83
2022-07-29T08:34:21.565Z,999.85
2022-07-29T08:35:21.258Z,999.87
2022-07-29T08:36:20.244Z,999.87
2022-07-29T08:37:20.234Z,999.86
2022-07-29T08:38:20.225Z,999.85
2022-07-29T08:39:20.196Z,999.86
2022-07-29T08:40:20.300Z,999.86
2022-07-29T08:41:21.168Z,999.86
2022-07-29T08:42:20.157Z,999.87
2022-07-29T08:43:20.146Z,999.83
2022-07-29T08:44:22.442Z,999.86
2022-07-29T08:45:21.139Z,999.86
2022-07-29T08:46:20.125Z,999.87
2022-07-29T08:47:20.086Z,999.88
2022-07-29T08:48:20.081Z,999.83
2022-07-29T08:49:20.125Z,999.82
2022-07-29T08:50:20.047Z,999.84
2022-07-29T08:51:20.061Z,999.84
2022-07-29T08:52:20.028Z,999.84
2022-07-29T08:53:20.006Z,999.84
2022-07-29T08:54:20.006Z,999.85
2022-07-29T08:55:21.490Z,999.83
2022-07-29T08:56:20.015Z,999.83
2022-07-29T08:57:19.960Z,999.85
2022-07-29T08:58:22.961Z,999.86
2022-07-29T08:59:19.954Z,999.80
2022-07-29T09:00:20.034Z,999.81
2022-07-29T09:01:19.949Z,999.85
2022-07-29T09:02:19.899Z,999.83
2022-07-29T09:03:19.960Z,999.83
2022-07-29T09:04:19.879Z,999.83
2022-07-29T09:05:19.841Z,999.82
2022-07-29T09:06:19.859Z,999.86
2022-07-29T09:07:19.843Z,999.83
2022-07-29T09:08:19.821Z,999.85
2022-07-29T09:09:19.799Z,999.79
2022-07-29T09:10:19.814Z,999.80
2022-07-29T09:11:19.791Z,999.82
2022-07-29T09:12:28.766Z,999.82
2022-07-29T09:13:20.750Z,999.81
2022-07-29T09:14:19.741Z,999.82
2022-07-29T09:15:19.740Z,999.81
2022-07-29T09:16:43.889Z,999.81
2022-07-29T09:17:20.790Z,999.80
2022-07-29T09:18:30.513Z,999.77
2022-07-29T09:19:20.664Z,999.81
2022-07-29T09:20:19.673Z,999.76
2022-07-29T09:21:19.734Z,999.79
2022-07-29T09:22:19.632Z,999.72
2022-07-29T09:23:22.867Z,999.74
2022-07-29T09:24:19.603Z,999.76
2022-07-29T09:25:19.584Z,999.74
2022-07-29T09:26:19.653Z,999.71
2022-07-29T09:27:19.576Z,999.72
2022-07-29T09:28:19.835Z,999.69
2022-07-29T09:29:19.535Z,999.72
2022-07-29T09:30:28.876Z,999.72
2022-07-29T09:31:20.623Z,999.71
2022-07-29T09:32:19.495Z,999.68
2022-07-29T09:33:19.485Z,999.70
2022-07-29T09:34:19.462Z,999.68
2022-07-29T09:35:19.579Z,999.69
2022-07-29T09:36:19.453Z,999.66
2022-07-29T09:37:19.428Z,999.64
2022-07-29T09:38:19.415Z,999.63
2022-07-29T09:39:19.465Z,999.62
2022-07-29T09:40:19.394Z,999.60
2022-07-29T09:41:19.383Z,999.61
2022-07-29T09:42:19.364Z,999.61
2022-07-29T09:43:19.345Z,999.59
2022-07-29T09:44:19.361Z,999.62
2022-07-29T09:45:19.314Z,999.59
2022-07-29T09:46:19.356Z,999.55
2022-07-29T09:47:19.294Z,999.56
2022-07-29T09:48:19.294Z,999.56
2022-07-29T09:49:19.361Z,999.55
2022-07-29T09:50:20.649Z,999.53
2022-07-29T09:51:21.331Z,999.55
2022-07-29T09:52:19.243Z,999.52
2022-07-29T09:53:19.217Z,999.54
2022-07-29T09:54:19.208Z,999.52
2022-07-29T09:55:19.963Z,999.48
2022-07-29T09:56:19.209Z,999.47
2022-07-29T09:57:19.169Z,999.46
2022-07-29T09:58:19.159Z,999.47
2022-07-29T09:59:19.137Z,999.47
2022-07-29T10:00:19.140Z,999.49
2022-07-29T10:01:19.172Z,999.49
2022-07-29T10:02:23.795Z,999.47
2022-07-29T10:03:20.234Z,999.52
2022-07-29T10:04:19.081Z,999.49
2022-07-29T10:05:19.057Z,999.52
2022-07-29T10:06:19.094Z,999.53
2022-07-29T10:07:19.010Z,999.53
2022-07-29T10:08:19.020Z,999.49
2022-07-29T10:09:19.011Z,999.46
2022-07-29T10:10:19.002Z,999.48
2022-07-29T10:11:18.991Z,999.50
2022-07-29T10:12:18.974Z,999.52
2022-07-29T10:13:18.951Z,999.49
2022-07-29T10:14:18.938Z,999.51
2022-07-29T10:15:18.951Z,999.53
2022-07-29T10:16:19.121Z,999.49
2022-07-29T10:17:18.901Z,999.48
2022-07-29T10:18:18.889Z,999.49
2022-07-29T10:19:18.864Z,999.51
2022-07-29T10:20:18.860Z,999.47
2022-07-29T10:21:34.973Z,999.47
2022-07-29T10:22:43.561Z,999.46
2022-07-29T10:23:19.826Z,999.43
2022-07-29T10:24:18.811Z,999.42
2022-07-29T10:25:18.793Z,999.46
2022-07-29T10:26:18.806Z,999.48
2022-07-29T10:27:18.852Z,999.46
2022-07-29T10:28:18.766Z,999.45
2022-07-29T10:29:18.722Z,999.44
2022-07-29T10:30:18.749Z,999.44
2022-07-29T10:31:18.810Z,999.45
2022-07-29T10:32:18.713Z,999.39
2022-07-29T10:33:18.698Z,999.41
2022-07-29T10:34:18.701Z,999.44
2022-07-29T10:35:18.677Z,999.43
2022-07-29T10:36:18.693Z,999.39
2022-07-29T10:37:18.707Z,999.39
2022-07-29T10:38:18.651Z,999.36
2022-07-29T10:39:18.655Z,999.37
2022-07-29T10:40:18.596Z,999.37
2022-07-29T10:41:19.677Z,999.36
2022-07-29T10:42:19.901Z,999.32
2022-07-29T10:43:18.568Z,999.35
2022-07-29T10:44:19.393Z,999.34
2022-07-29T10:45:18.526Z,999.35
2022-07-29T10:46:18.601Z,999.36
2022-07-29T10:47:18.552Z,999.34
2022-07-29T10:48:19.215Z,999.36
2022-07-29T10:49:18.541Z,999.36
2022-07-29T10:50:18.527Z,999.31
2022-07-29T10:51:18.466Z,999.36
2022-07-29T10:52:18.447Z,999.31
2022-07-29T10:53:18.418Z,999.32
2022-07-29T10:54:18.411Z,999.31
2022-07-29T10:55:18.409Z,999.31
2022-07-29T10:56:18.379Z,999.28
2022-07-29T10:57:18.401Z,999.27
2022-07-29T10:58:19.023Z,999.25
2022-07-29T10:59:18.351Z,999.23
2022-07-29T11:00:18.348Z,999.24
2022-07-29T11:01:18.329Z,999.21
2022-07-29T11:02:41.474Z,999.23
2022-07-29T11:03:19.334Z,999.21
2022-07-29T11:04:18.312Z,999.23
2022-07-29T11:05:18.271Z,999.22
2022-07-29T11:06:26.364Z,999.22
2022-07-29T11:07:19.251Z,999.23
2022-07-29T11:08:19.523Z,999.21
2022-07-29T11:09:18.210Z,999.20
2022-07-29T11:10:18.200Z,999.21
2022-07-29T11:11:18.221Z,999.19
2022-07-29T11:12:18.190Z,999.17
2022-07-29T11:13:18.162Z,999.20
2022-07-29T11:14:18.149Z,999.18
2022-07-29T11:15:18.151Z,999.17
2022-07-29T11:16:18.121Z,999.22
2022-07-29T11:17:18.150Z,999.14
2022-07-29T11:18:18.109Z,999.13
2022-07-29T11:19:21.525Z,999.13
2022-07-29T11:20:19.073Z,999.06
2022-07-29T11:21:18.062Z,999.12
2022-07-29T11:22:19.053Z,999.11
2022-07-29T11:23:19.032Z,999.09
2022-07-29T11:24:18.588Z,999.10
2022-07-29T11:25:19.016Z,999.08
2022-07-29T11:26:19.128Z,999.09
2022-07-29T11:27:19.816Z,999.09
2022-07-29T11:29:18.954Z,999.12
2022-07-29T11:30:17.933Z,999.07
2022-07-29T11:31:17.935Z,999.05
2022-07-29T11:32:18.420Z,999.06
2022-07-29T11:33:18.902Z,999.06
2022-07-29T11:34:18.886Z,999.02
2022-07-29T11:35:18.891Z,999.03
2022-07-29T11:36:17.966Z,998.98
2022-07-29T11:37:18.023Z,998.98
2022-07-29T11:38:17.855Z,999.00
2022-07-29T11:39:17.857Z,999.00
2022-07-29T11:40:18.279Z,998.98
2022-07-29T11:41:17.806Z,998.97
2022-07-29T11:42:17.786Z,998.96
2022-07-29T11:43:18.786Z,998.95
2022-07-29T11:44:17.991Z,998.97
2022-07-29T11:45:42.197Z,998.96
2022-07-29T11:46:18.736Z,998.98
2022-07-29T11:47:18.777Z,999.02
2022-07-29T11:48:30.009Z,999.00
2022-07-29T11:49:18.748Z,999.01
2022-07-29T11:50:17.695Z,998.99
2022-07-29T11:51:17.717Z,998.99
2022-07-29T11:52:17.658Z,999.01
2022-07-29T11:53:17.681Z,999.03
2022-07-29T11:54:17.627Z,998.98
2022-07-29T11:55:17.618Z,998.98
2022-07-29T11:56:17.607Z,999.00
2022-07-29T11:57:17.589Z,999.00
2022-07-29T11:58:17.599Z,998.98
2022-07-29T11:59:17.570Z,998.96
2022-07-29T12:00:18.673Z,998.93
2022-07-29T12:01:17.549Z,998.88
2022-07-29T12:02:37.389Z,998.85
2022-07-29T12:03:18.557Z,998.82
2022-07-29T12:04:17.506Z,998.86
2022-07-29T12:05:35.825Z,998.81
2022-07-29T12:06:20.967Z,998.86
2022-07-29T12:07:17.481Z,998.84
2022-07-29T12:08:17.480Z,998.81
2022-07-29T12:09:17.441Z,998.80
2022-07-29T12:10:20.201Z,998.82
2022-07-29T12:11:20.863Z,998.84
2022-07-29T12:12:17.409Z,998.82
2022-07-29T12:13:17.431Z,998.79
2022-07-29T12:14:17.371Z,998.77
2022-07-29T12:15:17.383Z,998.76
2022-07-29T12:16:29.395Z,998.73
2022-07-29T12:17:18.361Z,998.72
2022-07-29T12:18:18.428Z,998.72
2022-07-29T12:19:17.328Z,998.72
2022-07-29T12:20:17.300Z,998.70
2022-07-29T12:21:17.292Z,998.73
2022-07-29T12:22:17.367Z,998.71
2022-07-29T12:23:17.378Z,998.76
2022-07-29T12:24:17.245Z,998.72
2022-07-29T12:25:32.299Z,998.72
2022-07-29T12:26:25.638Z,998.69
2022-07-29T12:27:18.222Z,998.69